sensor_id;sensor_type;location;lat;lon;timestamp;P1;durP1;ratioP1;P2;durP2;ratioP2
28625;SDS011;18905;42.668;23.364;2023-11-21T00:00:29;49.85;;;25.00;;
28625;SDS011;18905;42.668;23.364;2023-11-21T00:02:55;41.53;;;23.13;;
28625;SDS011;18905;42.668;23.364;2023-11-21T00:05:20;48.38;;;24.20;;
28625;SDS011;18905;42.668;23.364;2023-11-21T00:07:48;51.30;;;24.92;;
28625;SDS011;18905;42.668;23.364;2023-11-21T00:10:13;43.25;;;24.30;;
28625;SDS011;18905;42.668;23.364;2023-11-21T00:12:39;43.17;;;23.98;;
28625;SDS011;18905;42.668;23.364;2023-11-21T00:15:07;43.42;;;21.55;;
28625;SDS011;18905;42.668;23.364;2023-11-21T00:17:38;52.80;;;26.38;;
28625;SDS011;18905;42.668;23.364;2023-11-21T00:20:05;44.05;;;23.23;;
28625;SDS011;18905;42.668;23.364;2023-11-21T00:22:35;41.10;;;24.40;;
28625;SDS011;18905;42.668;23.364;2023-11-21T00:25:00;42.03;;;23.27;;
28625;SDS011;18905;42.668;23.364;2023-11-21T00:27:28;40.63;;;25.02;;
28625;SDS011;18905;42.668;23.364;2023-11-21T00:29:54;45.25;;;23.42;;
28625;SDS011;18905;42.668;23.364;2023-11-21T00:32:19;40.03;;;23.52;;
28625;SDS011;18905;42.668;23.364;2023-11-21T00:34:44;41.72;;;23.05;;
28625;SDS011;18905;42.668;23.364;2023-11-21T00:37:10;39.15;;;22.13;;
28625;SDS011;18905;42.668;23.364;2023-11-21T00:39:35;35.03;;;21.65;;
28625;SDS011;18905;42.668;23.364;2023-11-21T00:42:00;36.25;;;21.40;;
28625;SDS011;18905;42.668;23.364;2023-11-21T00:44:26;38.08;;;20.58;;
28625;SDS011;18905;42.668;23.364;2023-11-21T00:46:51;40.22;;;18.77;;
28625;SDS011;18905;42.668;23.364;2023-11-21T00:49:17;37.53;;;18.75;;
28625;SDS011;18905;42.668;23.364;2023-11-21T00:51:42;39.65;;;19.15;;
28625;SDS011;18905;42.668;23.364;2023-11-21T00:54:07;34.22;;;18.58;;
28625;SDS011;18905;42.668;23.364;2023-11-21T00:56:33;36.38;;;17.00;;
28625;SDS011;18905;42.668;23.364;2023-11-21T00:58:59;34.13;;;18.58;;
28625;SDS011;18905;42.668;23.364;2023-11-21T01:01:24;32.15;;;19.27;;
28625;SDS011;18905;42.668;23.364;2023-11-21T01:03:49;35.60;;;18.30;;
28625;SDS011;18905;42.668;23.364;2023-11-21T01:06:15;36.55;;;18.20;;
28625;SDS011;18905;42.668;23.364;2023-11-21T01:08:41;29.77;;;17.80;;
28625;SDS011;18905;42.668;23.364;2023-11-21T01:11:08;33.35;;;18.90;;
28625;SDS011;18905;42.668;23.364;2023-11-21T01:13:35;32.00;;;17.58;;
28625;SDS011;18905;42.668;23.364;2023-11-21T01:16:00;34.13;;;17.70;;
28625;SDS011;18905;42.668;23.364;2023-11-21T01:18:26;32.28;;;17.05;;
28625;SDS011;18905;42.668;23.364;2023-11-21T01:20:51;27.80;;;16.73;;
28625;SDS011;18905;42.668;23.364;2023-11-21T01:23:18;28.13;;;16.90;;
28625;SDS011;18905;42.668;23.364;2023-11-21T01:25:44;29.13;;;17.10;;
28625;SDS011;18905;42.668;23.364;2023-11-21T01:28:10;31.58;;;16.48;;
28625;SDS011;18905;42.668;23.364;2023-11-21T01:30:35;32.45;;;13.30;;
28625;SDS011;18905;42.668;23.364;2023-11-21T01:33:00;30.38;;;12.60;;
28625;SDS011;18905;42.668;23.364;2023-11-21T01:35:26;31.08;;;13.82;;
28625;SDS011;18905;42.668;23.364;2023-11-21T01:37:51;35.72;;;15.25;;
28625;SDS011;18905;42.668;23.364;2023-11-21T01:40:17;34.00;;;16.42;;
28625;SDS011;18905;42.668;23.364;2023-11-21T01:42:42;32.50;;;17.33;;
28625;SDS011;18905;42.668;23.364;2023-11-21T01:45:12;28.42;;;15.32;;
28625;SDS011;18905;42.668;23.364;2023-11-21T01:47:38;37.15;;;17.08;;
28625;SDS011;18905;42.668;23.364;2023-11-21T01:50:06;43.70;;;21.05;;
28625;SDS011;18905;42.668;23.364;2023-11-21T01:52:36;45.20;;;22.42;;
28625;SDS011;18905;42.668;23.364;2023-11-21T01:55:02;57.67;;;24.52;;
28625;SDS011;18905;42.668;23.364;2023-11-21T01:57:29;46.90;;;21.83;;
28625;SDS011;18905;42.668;23.364;2023-11-21T01:59:55;55.90;;;23.42;;
28625;SDS011;18905;42.668;23.364;2023-11-21T02:02:23;56.17;;;27.83;;
28625;SDS011;18905;42.668;23.364;2023-11-21T02:04:49;63.55;;;27.15;;
28625;SDS011;18905;42.668;23.364;2023-11-21T02:07:14;61.75;;;24.90;;
28625;SDS011;18905;42.668;23.364;2023-11-21T02:09:40;74.63;;;30.83;;
28625;SDS011;18905;42.668;23.364;2023-11-21T02:12:07;71.65;;;32.05;;
28625;SDS011;18905;42.668;23.364;2023-11-21T02:14:34;74.30;;;33.00;;
28625;SDS011;18905;42.668;23.364;2023-11-21T02:16:59;63.00;;;30.05;;
28625;SDS011;18905;42.668;23.364;2023-11-21T02:19:26;67.80;;;30.42;;
28625;SDS011;18905;42.668;23.364;2023-11-21T02:21:52;69.07;;;29.40;;
28625;SDS011;18905;42.668;23.364;2023-11-21T02:24:19;80.43;;;33.00;;
28625;SDS011;18905;42.668;23.364;2023-11-21T02:26:45;77.35;;;34.85;;
28625;SDS011;18905;42.668;23.364;2023-11-21T02:29:11;62.50;;;30.17;;
28625;SDS011;18905;42.668;23.364;2023-11-21T02:31:38;53.92;;;26.90;;
28625;SDS011;18905;42.668;23.364;2023-11-21T02:34:12;53.27;;;26.87;;
28625;SDS011;18905;42.668;23.364;2023-11-21T02:36:42;62.35;;;28.17;;
28625;SDS011;18905;42.668;23.364;2023-11-21T02:39:08;60.58;;;27.27;;
28625;SDS011;18905;42.668;23.364;2023-11-21T02:41:34;54.78;;;25.42;;
28625;SDS011;18905;42.668;23.364;2023-11-21T02:43:59;45.80;;;23.30;;
28625;SDS011;18905;42.668;23.364;2023-11-21T02:46:25;47.03;;;22.80;;
28625;SDS011;18905;42.668;23.364;2023-11-21T02:48:51;43.42;;;22.63;;
28625;SDS011;18905;42.668;23.364;2023-11-21T02:51:18;47.83;;;22.92;;
28625;SDS011;18905;42.668;23.364;2023-11-21T02:53:44;40.60;;;19.40;;
28625;SDS011;18905;42.668;23.364;2023-11-21T02:56:11;44.40;;;21.90;;
28625;SDS011;18905;42.668;23.364;2023-11-21T02:58:37;46.35;;;20.23;;
28625;SDS011;18905;42.668;23.364;2023-11-21T03:01:02;40.53;;;20.83;;
28625;SDS011;18905;42.668;23.364;2023-11-21T03:03:32;43.28;;;19.15;;
28625;SDS011;18905;42.668;23.364;2023-11-21T03:05:57;38.97;;;17.77;;
28625;SDS011;18905;42.668;23.364;2023-11-21T03:08:23;39.42;;;19.48;;
28625;SDS011;18905;42.668;23.364;2023-11-21T03:10:48;51.38;;;25.98;;
28625;SDS011;18905;42.668;23.364;2023-11-21T03:13:13;70.00;;;38.33;;
28625;SDS011;18905;42.668;23.364;2023-11-21T03:15:39;66.30;;;38.35;;
28625;SDS011;18905;42.668;23.364;2023-11-21T03:18:04;64.85;;;38.20;;
28625;SDS011;18905;42.668;23.364;2023-11-21T03:20:30;65.40;;;35.95;;
28625;SDS011;18905;42.668;23.364;2023-11-21T03:22:55;59.17;;;33.22;;
28625;SDS011;18905;42.668;23.364;2023-11-21T03:25:20;54.97;;;31.00;;
28625;SDS011;18905;42.668;23.364;2023-11-21T03:27:49;73.00;;;35.67;;
28625;SDS011;18905;42.668;23.364;2023-11-21T03:30:14;78.47;;;36.03;;
28625;SDS011;18905;42.668;23.364;2023-11-21T03:32:40;68.47;;;36.15;;
28625;SDS011;18905;42.668;23.364;2023-11-21T03:35:05;68.05;;;35.08;;
28625;SDS011;18905;42.668;23.364;2023-11-21T03:37:31;68.65;;;32.75;;
28625;SDS011;18905;42.668;23.364;2023-11-21T03:39:56;64.68;;;32.22;;
28625;SDS011;18905;42.668;23.364;2023-11-21T03:42:22;66.05;;;33.70;;
28625;SDS011;18905;42.668;23.364;2023-11-21T03:44:47;61.47;;;32.28;;
28625;SDS011;18905;42.668;23.364;2023-11-21T03:47:12;53.42;;;30.27;;
28625;SDS011;18905;42.668;23.364;2023-11-21T03:49:38;60.90;;;30.58;;
28625;SDS011;18905;42.668;23.364;2023-11-21T03:52:04;60.10;;;30.75;;
28625;SDS011;18905;42.668;23.364;2023-11-21T03:54:29;57.65;;;30.00;;
28625;SDS011;18905;42.668;23.364;2023-11-21T03:56:55;44.83;;;24.80;;
28625;SDS011;18905;42.668;23.364;2023-11-21T03:59:20;48.28;;;24.42;;
28625;SDS011;18905;42.668;23.364;2023-11-21T04:01:49;45.72;;;22.75;;
28625;SDS011;18905;42.668;23.364;2023-11-21T04:04:15;43.55;;;19.25;;
28625;SDS011;18905;42.668;23.364;2023-11-21T04:06:40;45.47;;;19.90;;
28625;SDS011;18905;42.668;23.364;2023-11-21T04:09:06;40.38;;;19.75;;
28625;SDS011;18905;42.668;23.364;2023-11-21T04:11:31;55.30;;;22.80;;
28625;SDS011;18905;42.668;23.364;2023-11-21T04:13:57;52.20;;;23.83;;
28625;SDS011;18905;42.668;23.364;2023-11-21T04:16:22;44.67;;;23.25;;
28625;SDS011;18905;42.668;23.364;2023-11-21T04:18:48;42.97;;;22.90;;
28625;SDS011;18905;42.668;23.364;2023-11-21T04:21:13;46.50;;;23.55;;
28625;SDS011;18905;42.668;23.364;2023-11-21T04:23:38;45.72;;;23.65;;
28625;SDS011;18905;42.668;23.364;2023-11-21T04:26:05;48.75;;;24.67;;
28625;SDS011;18905;42.668;23.364;2023-11-21T04:28:31;47.63;;;23.77;;
28625;SDS011;18905;42.668;23.364;2023-11-21T04:30:56;49.03;;;23.88;;
28625;SDS011;18905;42.668;23.364;2023-11-21T04:33:21;46.42;;;23.27;;
28625;SDS011;18905;42.668;23.364;2023-11-21T04:35:47;49.88;;;22.27;;
28625;SDS011;18905;42.668;23.364;2023-11-21T04:38:13;51.22;;;20.40;;
28625;SDS011;18905;42.668;23.364;2023-11-21T04:40:38;43.58;;;20.73;;
28625;SDS011;18905;42.668;23.364;2023-11-21T04:43:04;43.47;;;22.30;;
28625;SDS011;18905;42.668;23.364;2023-11-21T04:45:29;48.20;;;22.35;;
28625;SDS011;18905;42.668;23.364;2023-11-21T04:47:55;44.53;;;20.98;;
28625;SDS011;18905;42.668;23.364;2023-11-21T04:50:21;40.47;;;20.52;;
28625;SDS011;18905;42.668;23.364;2023-11-21T04:52:46;42.50;;;21.05;;
28625;SDS011;18905;42.668;23.364;2023-11-21T04:55:12;40.60;;;19.92;;
28625;SDS011;18905;42.668;23.364;2023-11-21T04:57:37;49.70;;;21.88;;
28625;SDS011;18905;42.668;23.364;2023-11-21T05:00:03;39.10;;;21.05;;
28625;SDS011;18905;42.668;23.364;2023-11-21T05:02:31;46.25;;;20.75;;
28625;SDS011;18905;42.668;23.364;2023-11-21T05:05:00;54.33;;;23.80;;
28625;SDS011;18905;42.668;23.364;2023-11-21T05:07:25;54.05;;;23.25;;
28625;SDS011;18905;42.668;23.364;2023-11-21T05:09:54;46.55;;;20.15;;
28625;SDS011;18905;42.668;23.364;2023-11-21T05:12:21;66.00;;;26.00;;
28625;SDS011;18905;42.668;23.364;2023-11-21T05:14:48;54.95;;;22.40;;
28625;SDS011;18905;42.668;23.364;2023-11-21T05:17:14;56.83;;;21.75;;
28625;SDS011;18905;42.668;23.364;2023-11-21T05:19:39;40.83;;;19.38;;
28625;SDS011;18905;42.668;23.364;2023-11-21T05:22:05;44.17;;;19.35;;
28625;SDS011;18905;42.668;23.364;2023-11-21T05:24:31;41.80;;;19.88;;
28625;SDS011;18905;42.668;23.364;2023-11-21T05:26:56;164.55;;;26.65;;
28625;SDS011;18905;42.668;23.364;2023-11-21T05:29:23;50.72;;;20.58;;
28625;SDS011;18905;42.668;23.364;2023-11-21T05:31:48;69.75;;;19.50;;
28625;SDS011;18905;42.668;23.364;2023-11-21T05:34:14;55.50;;;20.27;;
28625;SDS011;18905;42.668;23.364;2023-11-21T05:36:40;40.05;;;18.63;;
28625;SDS011;18905;42.668;23.364;2023-11-21T05:39:06;104.20;;;22.60;;
28625;SDS011;18905;42.668;23.364;2023-11-21T05:41:31;47.75;;;16.92;;
28625;SDS011;18905;42.668;23.364;2023-11-21T05:43:56;42.05;;;18.00;;
28625;SDS011;18905;42.668;23.364;2023-11-21T05:46:22;70.72;;;18.20;;
28625;SDS011;18905;42.668;23.364;2023-11-21T05:48:47;37.30;;;16.73;;
28625;SDS011;18905;42.668;23.364;2023-11-21T05:51:13;44.15;;;18.67;;
28625;SDS011;18905;42.668;23.364;2023-11-21T05:53:38;42.30;;;18.45;;
28625;SDS011;18905;42.668;23.364;2023-11-21T05:56:04;38.13;;;19.92;;
28625;SDS011;18905;42.668;23.364;2023-11-21T05:58:30;51.40;;;19.73;;
28625;SDS011;18905;42.668;23.364;2023-11-21T06:00:55;47.45;;;21.70;;
28625;SDS011;18905;42.668;23.364;2023-11-21T06:03:20;43.03;;;22.45;;
28625;SDS011;18905;42.668;23.364;2023-11-21T06:05:46;57.85;;;23.50;;
28625;SDS011;18905;42.668;23.364;2023-11-21T06:08:11;49.55;;;24.33;;
28625;SDS011;18905;42.668;23.364;2023-11-21T06:10:36;61.13;;;26.20;;
28625;SDS011;18905;42.668;23.364;2023-11-21T06:13:02;53.97;;;26.73;;
28625;SDS011;18905;42.668;23.364;2023-11-21T06:15:29;55.95;;;24.08;;
28625;SDS011;18905;42.668;23.364;2023-11-21T06:17:54;49.55;;;23.27;;
28625;SDS011;18905;42.668;23.364;2023-11-21T06:20:21;53.47;;;25.80;;
28625;SDS011;18905;42.668;23.364;2023-11-21T06:22:48;54.40;;;26.42;;
28625;SDS011;18905;42.668;23.364;2023-11-21T06:25:15;51.05;;;24.30;;
28625;SDS011;18905;42.668;23.364;2023-11-21T06:27:43;49.85;;;25.60;;
28625;SDS011;18905;42.668;23.364;2023-11-21T06:30:09;50.65;;;25.70;;
28625;SDS011;18905;42.668;23.364;2023-11-21T06:32:36;40.45;;;23.00;;
28625;SDS011;18905;42.668;23.364;2023-11-21T06:35:03;57.25;;;27.77;;
28625;SDS011;18905;42.668;23.364;2023-11-21T06:37:29;35.33;;;18.77;;
28625;SDS011;18905;42.668;23.364;2023-11-21T06:39:56;35.53;;;18.45;;
28625;SDS011;18905;42.668;23.364;2023-11-21T06:42:23;30.65;;;15.65;;
28625;SDS011;18905;42.668;23.364;2023-11-21T06:44:52;39.03;;;14.25;;
28625;SDS011;18905;42.668;23.364;2023-11-21T06:47:18;41.25;;;18.10;;
28625;SDS011;18905;42.668;23.364;2023-11-21T06:49:47;28.02;;;14.55;;
28625;SDS011;18905;42.668;23.364;2023-11-21T06:52:15;30.95;;;13.85;;
28625;SDS011;18905;42.668;23.364;2023-11-21T06:54:40;32.42;;;14.77;;
28625;SDS011;18905;42.668;23.364;2023-11-21T06:57:06;28.27;;;14.32;;
28625;SDS011;18905;42.668;23.364;2023-11-21T06:59:31;24.25;;;13.05;;
28625;SDS011;18905;42.668;23.364;2023-11-21T07:01:57;35.08;;;13.48;;
28625;SDS011;18905;42.668;23.364;2023-11-21T07:04:22;27.95;;;13.13;;
28625;SDS011;18905;42.668;23.364;2023-11-21T07:06:49;36.63;;;13.38;;
28625;SDS011;18905;42.668;23.364;2023-11-21T07:09:14;35.22;;;13.20;;
28625;SDS011;18905;42.668;23.364;2023-11-21T07:11:40;34.45;;;13.50;;
28625;SDS011;18905;42.668;23.364;2023-11-21T07:14:06;76.90;;;16.80;;
28625;SDS011;18905;42.668;23.364;2023-11-21T07:16:36;38.08;;;15.52;;
28625;SDS011;18905;42.668;23.364;2023-11-21T07:19:02;26.98;;;14.25;;
28625;SDS011;18905;42.668;23.364;2023-11-21T07:21:32;28.73;;;14.02;;
28625;SDS011;18905;42.668;23.364;2023-11-21T07:24:01;26.30;;;13.50;;
28625;SDS011;18905;42.668;23.364;2023-11-21T07:26:27;26.17;;;14.30;;
28625;SDS011;18905;42.668;23.364;2023-11-21T07:28:53;27.90;;;14.23;;
28625;SDS011;18905;42.668;23.364;2023-11-21T07:31:19;26.17;;;13.60;;
28625;SDS011;18905;42.668;23.364;2023-11-21T07:33:48;25.27;;;13.82;;
28625;SDS011;18905;42.668;23.364;2023-11-21T07:36:14;29.08;;;14.35;;
28625;SDS011;18905;42.668;23.364;2023-11-21T07:38:40;35.05;;;15.20;;
28625;SDS011;18905;42.668;23.364;2023-11-21T07:41:09;34.90;;;15.35;;
28625;SDS011;18905;42.668;23.364;2023-11-21T07:43:35;34.47;;;15.10;;
28625;SDS011;18905;42.668;23.364;2023-11-21T07:46:01;31.23;;;14.70;;
28625;SDS011;18905;42.668;23.364;2023-11-21T07:48:28;31.38;;;14.48;;
28625;SDS011;18905;42.668;23.364;2023-11-21T07:50:54;29.88;;;14.43;;
28625;SDS011;18905;42.668;23.364;2023-11-21T07:53:20;30.20;;;14.80;;
28625;SDS011;18905;42.668;23.364;2023-11-21T07:55:45;32.80;;;15.40;;
28625;SDS011;18905;42.668;23.364;2023-11-21T07:58:12;32.47;;;16.40;;
28625;SDS011;18905;42.668;23.364;2023-11-21T08:00:38;37.25;;;15.98;;
28625;SDS011;18905;42.668;23.364;2023-11-21T08:03:04;32.15;;;15.80;;
28625;SDS011;18905;42.668;23.364;2023-11-21T08:05:30;45.53;;;15.27;;
28625;SDS011;18905;42.668;23.364;2023-11-21T08:07:56;31.50;;;15.95;;
28625;SDS011;18905;42.668;23.364;2023-11-21T08:10:21;51.58;;;16.35;;
28625;SDS011;18905;42.668;23.364;2023-11-21T08:12:47;31.70;;;16.38;;
28625;SDS011;18905;42.668;23.364;2023-11-21T08:15:13;39.33;;;16.38;;
28625;SDS011;18905;42.668;23.364;2023-11-21T08:17:39;31.38;;;15.43;;
28625;SDS011;18905;42.668;23.364;2023-11-21T08:20:05;33.13;;;15.80;;
28625;SDS011;18905;42.668;23.364;2023-11-21T08:22:31;33.75;;;15.40;;
28625;SDS011;18905;42.668;23.364;2023-11-21T08:24:57;32.05;;;16.05;;
28625;SDS011;18905;42.668;23.364;2023-11-21T08:27:23;38.72;;;16.23;;
28625;SDS011;18905;42.668;23.364;2023-11-21T08:29:48;36.55;;;16.55;;
28625;SDS011;18905;42.668;23.364;2023-11-21T08:32:13;35.97;;;15.55;;
28625;SDS011;18905;42.668;23.364;2023-11-21T08:34:40;37.20;;;15.25;;
28625;SDS011;18905;42.668;23.364;2023-11-21T08:37:08;36.38;;;16.20;;
28625;SDS011;18905;42.668;23.364;2023-11-21T08:39:33;30.55;;;15.57;;
28625;SDS011;18905;42.668;23.364;2023-11-21T08:41:58;50.50;;;16.58;;
28625;SDS011;18905;42.668;23.364;2023-11-21T08:44:24;41.83;;;18.00;;
28625;SDS011;18905;42.668;23.364;2023-11-21T08:46:50;50.78;;;22.40;;
28625;SDS011;18905;42.668;23.364;2023-11-21T08:49:15;58.22;;;24.45;;
28625;SDS011;18905;42.668;23.364;2023-11-21T08:51:40;47.92;;;24.15;;
28625;SDS011;18905;42.668;23.364;2023-11-21T08:54:06;64.95;;;28.25;;
28625;SDS011;18905;42.668;23.364;2023-11-21T08:56:36;59.63;;;30.17;;
28625;SDS011;18905;42.668;23.364;2023-11-21T08:59:01;57.47;;;31.50;;
28625;SDS011;18905;42.668;23.364;2023-11-21T09:01:31;67.82;;;35.47;;
28625;SDS011;18905;42.668;23.364;2023-11-21T09:03:57;55.88;;;31.38;;
28625;SDS011;18905;42.668;23.364;2023-11-21T09:06:23;65.22;;;33.70;;
28625;SDS011;18905;42.668;23.364;2023-11-21T09:08:49;64.70;;;34.75;;
28625;SDS011;18905;42.668;23.364;2023-11-21T09:11:14;66.07;;;33.50;;
28625;SDS011;18905;42.668;23.364;2023-11-21T09:13:39;63.35;;;33.25;;
28625;SDS011;18905;42.668;23.364;2023-11-21T09:16:05;68.90;;;33.55;;
28625;SDS011;18905;42.668;23.364;2023-11-21T09:18:31;58.78;;;32.35;;
28625;SDS011;18905;42.668;23.364;2023-11-21T09:20:56;59.70;;;32.15;;
28625;SDS011;18905;42.668;23.364;2023-11-21T09:23:21;63.03;;;32.85;;
28625;SDS011;18905;42.668;23.364;2023-11-21T09:25:47;61.45;;;33.78;;
28625;SDS011;18905;42.668;23.364;2023-11-21T09:28:15;56.50;;;28.95;;
28625;SDS011;18905;42.668;23.364;2023-11-21T09:30:42;55.60;;;27.10;;
28625;SDS011;18905;42.668;23.364;2023-11-21T09:33:08;46.33;;;23.52;;
28625;SDS011;18905;42.668;23.364;2023-11-21T09:35:35;45.88;;;25.02;;
28625;SDS011;18905;42.668;23.364;2023-11-21T09:38:03;48.97;;;24.52;;
28625;SDS011;18905;42.668;23.364;2023-11-21T09:40:30;47.60;;;25.08;;
28625;SDS011;18905;42.668;23.364;2023-11-21T09:42:57;39.95;;;19.65;;
28625;SDS011;18905;42.668;23.364;2023-11-21T09:45:27;47.38;;;19.95;;
28625;SDS011;18905;42.668;23.364;2023-11-21T09:47:54;37.50;;;19.48;;
28625;SDS011;18905;42.668;23.364;2023-11-21T09:50:23;37.95;;;20.05;;
28625;SDS011;18905;42.668;23.364;2023-11-21T09:55:22;35.80;;;19.15;;
28625;SDS011;18905;42.668;23.364;2023-11-21T09:57:52;29.38;;;17.70;;
28625;SDS011;18905;42.668;23.364;2023-11-21T10:00:19;42.00;;;17.85;;
28625;SDS011;18905;42.668;23.364;2023-11-21T10:02:48;35.13;;;17.55;;
28625;SDS011;18905;42.668;23.364;2023-11-21T10:05:14;46.58;;;18.17;;
28625;SDS011;18905;42.668;23.364;2023-11-21T10:07:42;42.63;;;17.92;;
28625;SDS011;18905;42.668;23.364;2023-11-21T10:10:10;37.42;;;17.55;;
28625;SDS011;18905;42.668;23.364;2023-11-21T10:12:35;33.50;;;17.83;;
28625;SDS011;18905;42.668;23.364;2023-11-21T10:15:03;37.72;;;17.60;;
28625;SDS011;18905;42.668;23.364;2023-11-21T10:17:34;35.75;;;18.73;;
28625;SDS011;18905;42.668;23.364;2023-11-21T10:20:08;42.47;;;18.42;;
28625;SDS011;18905;42.668;23.364;2023-11-21T10:22:42;37.47;;;16.95;;
28625;SDS011;18905;42.668;23.364;2023-11-21T10:25:11;33.77;;;18.07;;
28625;SDS011;18905;42.668;23.364;2023-11-21T10:27:39;38.83;;;18.70;;
28625;SDS011;18905;42.668;23.364;2023-11-21T10:30:06;32.28;;;16.17;;
28625;SDS011;18905;42.668;23.364;2023-11-21T10:32:36;47.53;;;18.42;;
28625;SDS011;18905;42.668;23.364;2023-11-21T10:35:06;38.80;;;16.88;;
28625;SDS011;18905;42.668;23.364;2023-11-21T10:37:35;26.58;;;15.32;;
28625;SDS011;18905;42.668;23.364;2023-11-21T10:40:06;27.67;;;15.38;;
28625;SDS011;18905;42.668;23.364;2023-11-21T10:42:33;29.65;;;15.68;;
28625;SDS011;18905;42.668;23.364;2023-11-21T10:44:58;28.70;;;14.73;;
28625;SDS011;18905;42.668;23.364;2023-11-21T10:47:25;31.17;;;14.90;;
28625;SDS011;18905;42.668;23.364;2023-11-21T10:49:51;33.05;;;14.82;;
28625;SDS011;18905;42.668;23.364;2023-11-21T10:52:20;28.10;;;14.43;;
28625;SDS011;18905;42.668;23.364;2023-11-21T10:54:46;32.03;;;14.48;;
28625;SDS011;18905;42.668;23.364;2023-11-21T10:57:13;21.65;;;11.90;;
28625;SDS011;18905;42.668;23.364;2023-11-21T10:59:42;25.92;;;13.05;;
28625;SDS011;18905;42.668;23.364;2023-11-21T11:02:23;23.77;;;12.23;;
28625;SDS011;18905;42.668;23.364;2023-11-21T11:04:56;18.60;;;10.68;;
28625;SDS011;18905;42.668;23.364;2023-11-21T11:07:25;29.00;;;12.07;;
28625;SDS011;18905;42.668;23.364;2023-11-21T11:09:55;23.60;;;10.82;;
28625;SDS011;18905;42.668;23.364;2023-11-21T11:12:21;27.23;;;13.00;;
28625;SDS011;18905;42.668;23.364;2023-11-21T11:14:48;30.60;;;13.88;;
28625;SDS011;18905;42.668;23.364;2023-11-21T11:17:14;33.33;;;15.13;;
28625;SDS011;18905;42.668;23.364;2023-11-21T11:19:39;34.13;;;15.98;;
28625;SDS011;18905;42.668;23.364;2023-11-21T11:28:04;30.45;;;16.08;;
28625;SDS011;18905;42.668;23.364;2023-11-21T11:33:31;28.23;;;14.75;;
28625;SDS011;18905;42.668;23.364;2023-11-21T11:36:13;35.88;;;14.10;;
28625;SDS011;18905;42.668;23.364;2023-11-21T11:38:46;33.58;;;14.68;;
28625;SDS011;18905;42.668;23.364;2023-11-21T11:41:15;28.58;;;13.77;;
28625;SDS011;18905;42.668;23.364;2023-11-21T11:43:50;30.73;;;14.55;;
28625;SDS011;18905;42.668;23.364;2023-11-21T11:46:15;27.45;;;13.95;;
28625;SDS011;18905;42.668;23.364;2023-11-21T11:48:41;27.90;;;13.55;;
28625;SDS011;18905;42.668;23.364;2023-11-21T11:51:10;25.92;;;13.77;;
28625;SDS011;18905;42.668;23.364;2023-11-21T11:53:39;34.83;;;16.25;;
28625;SDS011;18905;42.668;23.364;2023-11-21T11:58:44;32.95;;;15.75;;
28625;SDS011;18905;42.668;23.364;2023-11-21T12:01:10;34.78;;;17.08;;
28625;SDS011;18905;42.668;23.364;2023-11-21T12:03:36;34.03;;;16.85;;
28625;SDS011;18905;42.668;23.364;2023-11-21T12:06:02;36.92;;;17.80;;
28625;SDS011;18905;42.668;23.364;2023-11-21T12:08:28;37.70;;;18.52;;
28625;SDS011;18905;42.668;23.364;2023-11-21T12:10:56;33.53;;;16.95;;
28625;SDS011;18905;42.668;23.364;2023-11-21T12:13:22;50.60;;;19.45;;
28625;SDS011;18905;42.668;23.364;2023-11-21T12:15:48;38.58;;;19.55;;
28625;SDS011;18905;42.668;23.364;2023-11-21T12:18:14;37.55;;;20.13;;
28625;SDS011;18905;42.668;23.364;2023-11-21T12:20:39;41.67;;;20.67;;
28625;SDS011;18905;42.668;23.364;2023-11-21T12:23:06;41.95;;;21.85;;
28625;SDS011;18905;42.668;23.364;2023-11-21T12:25:33;50.17;;;23.60;;
28625;SDS011;18905;42.668;23.364;2023-11-21T12:28:00;41.00;;;23.52;;
28625;SDS011;18905;42.668;23.364;2023-11-21T12:30:31;49.03;;;26.17;;
28625;SDS011;18905;42.668;23.364;2023-11-21T12:33:03;50.40;;;25.17;;
28625;SDS011;18905;42.668;23.364;2023-11-21T12:35:30;50.88;;;27.33;;
28625;SDS011;18905;42.668;23.364;2023-11-21T12:37:59;50.67;;;26.95;;
28625;SDS011;18905;42.668;23.364;2023-11-21T12:40:27;53.42;;;26.35;;
28625;SDS011;18905;42.668;23.364;2023-11-21T12:42:53;45.88;;;25.50;;
28625;SDS011;18905;42.668;23.364;2023-11-21T12:45:21;50.85;;;25.92;;
28625;SDS011;18905;42.668;23.364;2023-11-21T12:47:51;49.03;;;25.73;;
28625;SDS011;18905;42.668;23.364;2023-11-21T12:50:20;46.72;;;27.25;;
28625;SDS011;18905;42.668;23.364;2023-11-21T12:52:53;58.15;;;27.17;;
28625;SDS011;18905;42.668;23.364;2023-11-21T12:55:23;56.63;;;27.58;;
28625;SDS011;18905;42.668;23.364;2023-11-21T12:57:52;54.30;;;26.42;;
28625;SDS011;18905;42.668;23.364;2023-11-21T13:00:20;59.00;;;26.90;;
28625;SDS011;18905;42.668;23.364;2023-11-21T13:02:56;56.88;;;27.27;;
28625;SDS011;18905;42.668;23.364;2023-11-21T13:05:30;56.22;;;28.15;;
28625;SDS011;18905;42.668;23.364;2023-11-21T13:07:58;60.50;;;28.00;;
28625;SDS011;18905;42.668;23.364;2023-11-21T13:10:27;68.28;;;26.83;;
28625;SDS011;18905;42.668;23.364;2023-11-21T13:12:56;52.67;;;28.83;;
28625;SDS011;18905;42.668;23.364;2023-11-21T13:15:23;62.67;;;30.40;;
28625;SDS011;18905;42.668;23.364;2023-11-21T13:17:49;62.17;;;30.05;;
28625;SDS011;18905;42.668;23.364;2023-11-21T13:20:16;56.47;;;27.38;;
28625;SDS011;18905;42.668;23.364;2023-11-21T13:22:49;64.38;;;29.33;;
28625;SDS011;18905;42.668;23.364;2023-11-21T13:25:16;65.10;;;27.70;;
28625;SDS011;18905;42.668;23.364;2023-11-21T13:27:45;54.15;;;28.67;;
28625;SDS011;18905;42.668;23.364;2023-11-21T13:30:11;52.70;;;27.70;;
28625;SDS011;18905;42.668;23.364;2023-11-21T13:32:40;51.13;;;27.63;;
28625;SDS011;18905;42.668;23.364;2023-11-21T13:35:07;58.45;;;27.63;;
28625;SDS011;18905;42.668;23.364;2023-11-21T13:37:37;57.00;;;28.67;;
28625;SDS011;18905;42.668;23.364;2023-11-21T13:40:03;57.15;;;27.88;;
28625;SDS011;18905;42.668;23.364;2023-11-21T13:42:39;53.63;;;28.58;;
28625;SDS011;18905;42.668;23.364;2023-11-21T13:45:06;53.53;;;29.48;;
28625;SDS011;18905;42.668;23.364;2023-11-21T13:47:31;59.97;;;29.67;;
28625;SDS011;18905;42.668;23.364;2023-11-21T13:49:59;51.30;;;28.00;;
28625;SDS011;18905;42.668;23.364;2023-11-21T13:52:25;56.33;;;29.08;;
28625;SDS011;18905;42.668;23.364;2023-11-21T13:54:52;54.83;;;29.60;;
28625;SDS011;18905;42.668;23.364;2023-11-21T13:57:18;62.25;;;31.20;;
28625;SDS011;18905;42.668;23.364;2023-11-21T13:59:45;57.38;;;32.35;;
28625;SDS011;18905;42.668;23.364;2023-11-21T14:02:11;52.92;;;29.45;;
28625;SDS011;18905;42.668;23.364;2023-11-21T14:04:43;64.60;;;30.98;;
28625;SDS011;18905;42.668;23.364;2023-11-21T14:07:19;55.38;;;30.75;;
28625;SDS011;18905;42.668;23.364;2023-11-21T14:09:59;63.65;;;30.35;;
28625;SDS011;18905;42.668;23.364;2023-11-21T14:12:25;51.90;;;29.38;;
28625;SDS011;18905;42.668;23.364;2023-11-21T14:14:51;54.22;;;29.25;;
28625;SDS011;18905;42.668;23.364;2023-11-21T14:17:16;59.95;;;30.05;;
28625;SDS011;18905;42.668;23.364;2023-11-21T14:19:41;58.00;;;29.38;;